createdAt,value
2018-09-08T00:02:20.582Z,36.37
2018-09-08T00:04:49.173Z,37.37
2018-09-08T00:07:22.987Z,52.50
2018-09-08T00:09:51.692Z,53.30
2018-09-08T00:12:20.282Z,56.10
2018-09-08T00:14:48.017Z,55.37
2018-09-08T00:17:22.122Z,54.43
2018-09-08T00:19:55.895Z,46.13
2018-09-08T00:22:29.815Z,51.37
2018-09-08T00:25:03.745Z,58.73
2018-09-08T00:27:38.125Z,60.60
2018-09-08T00:30:10.137Z,73.77
2018-09-08T00:32:40.091Z,65.33
2018-09-08T00:35:08.665Z,70.20
2018-09-08T00:37:37.373Z,71.87
2018-09-08T00:40:05.893Z,69.63
2018-09-08T00:42:34.885Z,79.20
2018-09-08T00:45:03.475Z,83.53
2018-09-08T00:47:31.948Z,93.80
2018-09-08T00:50:00.507Z,126.07
2018-09-08T00:52:29.092Z,165.50
2018-09-08T00:54:57.609Z,152.83
2018-09-08T00:57:26.063Z,177.33
2018-09-08T00:59:54.700Z,220.60
2018-09-08T01:02:23.209Z,252.77
2018-09-08T01:04:51.675Z,245.37
2018-09-08T01:07:25.459Z,264.57
2018-09-08T01:09:54.033Z,245.17
2018-09-08T01:12:22.581Z,262.73
2018-09-08T01:14:51.099Z,288.77
2018-09-08T01:17:19.696Z,281.00
2018-09-08T01:19:48.241Z,251.87
2018-09-08T01:22:17.437Z,247.20
2018-09-08T01:24:46.061Z,214.07
2018-09-08T01:27:14.628Z,229.87
2018-09-08T01:29:43.113Z,225.93
2018-09-08T01:32:11.615Z,221.90
2018-09-08T01:34:40.121Z,208.77
2018-09-08T01:37:08.728Z,214.97
2018-09-08T01:39:37.260Z,177.73
2018-09-08T01:42:05.793Z,194.10
2018-09-08T01:44:34.321Z,194.63
2018-09-08T01:47:02.857Z,194.43
2018-09-08T01:49:31.401Z,196.13
2018-09-08T01:52:00.000Z,178.30
2018-09-08T01:54:28.478Z,185.07
2018-09-08T01:56:57.000Z,173.30
2018-09-08T01:59:25.475Z,165.93
2018-09-08T02:01:53.996Z,173.73
2018-09-08T02:04:22.543Z,185.27
2018-09-08T02:06:51.053Z,182.67
2018-09-08T02:09:19.561Z,201.30
2018-09-08T02:11:48.031Z,203.57
2018-09-08T02:14:16.555Z,195.53
2018-09-08T02:16:45.038Z,192.87
2018-09-08T02:19:13.636Z,194.70
2018-09-08T02:21:42.168Z,198.03
2018-09-08T02:24:10.672Z,203.87
2018-09-08T02:26:39.276Z,206.00
2018-09-08T02:29:07.880Z,205.77
2018-09-08T02:31:36.413Z,197.73
2018-09-08T02:34:04.932Z,224.30
2018-09-08T02:36:33.392Z,240.23
2018-09-08T02:39:01.895Z,252.53
2018-09-08T02:41:30.385Z,236.20
2018-09-08T02:43:58.925Z,242.57
2018-09-08T02:46:27.409Z,197.87
2018-09-08T02:48:55.953Z,197.97
2018-09-08T02:51:23.360Z,194.40
2018-09-08T02:53:50.764Z,195.60
2018-09-08T02:56:18.169Z,182.43
2018-09-08T02:58:45.536Z,183.20
2018-09-08T03:01:12.911Z,197.70
2018-09-08T03:03:40.313Z,207.87
2018-09-08T03:06:07.681Z,206.53
2018-09-08T03:08:35.083Z,211.87
2018-09-08T03:11:02.499Z,225.53
2018-09-08T03:13:29.912Z,225.43
2018-09-08T03:15:57.337Z,238.90
2018-09-08T03:18:24.752Z,236.70
2018-09-08T03:20:52.291Z,243.17
2018-09-08T03:23:19.693Z,239.83
2018-09-08T03:25:47.103Z,238.67
2018-09-08T03:28:14.519Z,241.80
2018-09-08T03:30:41.923Z,244.83
2018-09-08T03:33:09.374Z,258.80
2018-09-08T03:35:36.785Z,265.50
2018-09-08T03:38:04.200Z,264.13
2018-09-08T03:40:31.633Z,266.83
2018-09-08T03:42:59.075Z,269.03
2018-09-08T03:45:26.477Z,281.43
2018-09-08T03:47:53.900Z,255.17
2018-09-08T03:50:21.287Z,262.17
2018-09-08T03:52:48.721Z,255.63
2018-09-08T03:55:16.134Z,249.57
2018-09-08T03:57:43.496Z,241.00
2018-09-08T04:00:10.912Z,242.30
2018-09-08T04:02:39.372Z,295.17
2018-09-08T04:05:07.977Z,312.83
2018-09-08T04:07:36.493Z,304.00
2018-09-08T04:10:05.411Z,269.17
2018-09-08T04:12:33.962Z,275.17
2018-09-08T04:15:02.491Z,261.83
2018-09-08T04:17:31.034Z,224.33
2018-09-08T04:19:59.567Z,226.57
2018-09-08T04:22:32.386Z,205.83
2018-09-08T04:25:00.915Z,173.53
2018-09-08T04:27:29.407Z,170.10
2018-09-08T04:29:57.965Z,161.97
2018-09-08T04:32:26.504Z,157.67
2018-09-08T04:34:55.268Z,157.40
2018-09-08T04:37:23.809Z,149.10
2018-09-08T04:39:52.332Z,146.33
2018-09-08T04:42:20.873Z,148.30
2018-09-08T04:44:49.636Z,149.20
2018-09-08T04:47:18.184Z,150.37
2018-09-08T04:49:46.696Z,145.60
2018-09-08T04:52:15.336Z,138.67
2018-09-08T04:54:43.812Z,137.93
2018-09-08T04:57:12.276Z,137.97
2018-09-08T04:59:40.828Z,149.53
2018-09-08T05:02:09.308Z,143.27
2018-09-08T05:04:37.830Z,150.37
2018-09-08T05:07:06.389Z,156.30
2018-09-08T05:09:34.851Z,161.93
2018-09-08T05:12:03.712Z,157.67
2018-09-08T05:14:32.210Z,153.67
2018-09-08T05:17:00.732Z,153.97
2018-09-08T05:19:29.313Z,141.37
2018-09-08T05:21:57.865Z,147.80
2018-09-08T05:24:26.412Z,141.33
2018-09-08T05:26:54.921Z,143.80
2018-09-08T05:29:23.608Z,142.43
2018-09-08T05:31:52.084Z,145.43
2018-09-08T05:34:20.565Z,143.23
2018-09-08T05:36:49.088Z,145.30
2018-09-08T05:39:17.580Z,149.00
2018-09-08T05:41:46.085Z,143.43
2018-09-08T05:44:14.629Z,136.30
2018-09-08T05:46:43.125Z,135.33
2018-09-08T05:49:11.723Z,135.13
2018-09-08T05:51:40.217Z,126.60
2018-09-08T05:54:08.801Z,121.77
2018-09-08T05:56:37.378Z,114.00
2018-09-08T05:59:05.920Z,99.27
2018-09-08T06:01:34.464Z,100.20
2018-09-08T06:04:02.967Z,108.27
2018-09-08T06:06:31.508Z,129.63
2018-09-08T06:09:00.056Z,146.60
2018-09-08T06:11:28.555Z,143.17
2018-09-08T06:13:57.037Z,147.80
2018-09-08T06:16:25.558Z,145.20
2018-09-08T06:18:54.104Z,151.87
2018-09-08T06:21:22.635Z,148.07
2018-09-08T06:23:51.161Z,154.90
2018-09-08T06:26:19.721Z,163.57
2018-09-08T06:28:48.268Z,160.77
2018-09-08T06:31:16.747Z,150.73
2018-09-08T06:33:45.294Z,126.63
2018-09-08T06:36:13.824Z,164.40
2018-09-08T06:38:42.422Z,215.07
2018-09-08T06:41:11.002Z,211.10
2018-09-08T06:43:39.557Z,218.83
2018-09-08T06:46:08.260Z,230.90
2018-09-08T06:48:36.808Z,223.83
2018-09-08T06:51:05.744Z,225.20
2018-09-08T06:53:34.261Z,240.67
2018-09-08T06:56:02.812Z,221.90
2018-09-08T06:58:31.424Z,249.77
2018-09-08T07:00:59.967Z,289.40
2018-09-08T07:03:28.846Z,292.90
2018-09-08T07:05:57.271Z,305.70
2018-09-08T07:08:25.819Z,312.33
2018-09-08T07:10:54.354Z,315.77
2018-09-08T07:13:22.873Z,318.93
2018-09-08T07:15:51.408Z,334.03
2018-09-08T07:18:19.945Z,317.93
2018-09-08T07:20:48.483Z,294.67
2018-09-08T07:23:17.008Z,295.07
2018-09-08T07:25:45.532Z,249.67
2018-09-08T07:28:14.043Z,209.90
2018-09-08T07:30:42.597Z,219.10
2018-09-08T07:33:11.184Z,226.97
2018-09-08T07:35:39.790Z,237.33
2018-09-08T07:38:08.317Z,221.07
2018-09-08T07:40:36.847Z,184.53
2018-09-08T07:43:05.413Z,219.30
2018-09-08T07:45:33.920Z,240.13
2018-09-08T07:48:02.444Z,277.13
2018-09-08T07:50:30.945Z,285.30
2018-09-08T07:52:59.448Z,275.53
2018-09-08T07:55:28.089Z,281.63
2018-09-08T07:57:56.659Z,331.57
2018-09-08T08:00:25.292Z,329.50
2018-09-08T08:02:53.846Z,330.60
2018-09-08T08:05:22.364Z,329.90
2018-09-08T08:07:50.899Z,309.73
2018-09-08T08:10:19.429Z,262.60
2018-09-08T08:12:47.969Z,208.13
2018-09-08T08:15:16.501Z,202.57
2018-09-08T08:17:45.061Z,183.50
2018-09-08T08:20:13.613Z,185.20
2018-09-08T08:22:42.114Z,172.87
2018-09-08T08:25:10.680Z,125.17
2018-09-08T08:27:39.248Z,121.87
2018-09-08T08:30:07.802Z,104.27
2018-09-08T08:32:36.346Z,82.13
2018-09-08T08:35:05.074Z,77.73
2018-09-08T08:37:33.656Z,86.13
2018-09-08T08:40:02.164Z,76.43
2018-09-08T08:42:30.732Z,90.27
2018-09-08T08:44:59.261Z,91.00
2018-09-08T08:47:27.829Z,89.07
2018-09-08T08:52:09.863Z,86.60
2018-09-08T08:54:42.279Z,54.47
2018-09-08T08:57:10.796Z,61.77
2018-09-08T08:59:39.393Z,58.50
2018-09-08T09:02:07.894Z,28.20
2018-09-08T09:04:36.446Z,21.67
2018-09-08T09:07:05.201Z,27.03
2018-09-08T09:09:33.587Z,17.07
2018-09-08T09:12:02.170Z,26.37
2018-09-08T09:14:30.667Z,29.37
2018-09-08T09:16:59.226Z,27.60
2018-09-08T09:19:40.880Z,25.93
2018-09-08T09:22:21.903Z,64.73
2018-09-08T09:24:55.675Z,63.13
2018-09-08T09:27:24.684Z,71.90
2018-09-08T09:29:53.494Z,75.20
2018-09-08T09:32:22.100Z,82.60
2018-09-08T09:34:50.648Z,96.40
2018-09-08T09:37:19.346Z,132.60
2018-09-08T09:39:48.310Z,273.77
2018-09-08T09:42:16.872Z,352.17
2018-09-08T09:44:45.404Z,429.30
2018-09-08T09:47:14.177Z,407.70
2018-09-08T09:49:42.816Z,431.43
2018-09-08T09:52:11.342Z,379.43
2018-09-08T09:54:39.832Z,286.77
2018-09-08T09:57:08.351Z,280.13
2018-09-08T09:59:36.885Z,340.77
2018-09-08T10:02:11.009Z,429.67
2018-09-08T10:04:39.621Z,545.63
2018-09-08T10:07:09.801Z,516.33
2018-09-08T10:09:40.565Z,548.20
2018-09-08T10:12:09.098Z,541.37
2018-09-08T10:14:37.613Z,599.27
2018-09-08T10:17:06.076Z,575.43
2018-09-08T10:19:34.583Z,547.27
2018-09-08T10:22:03.107Z,515.60
2018-09-08T10:24:31.583Z,420.83
2018-09-08T10:27:00.101Z,444.97
2018-09-08T10:29:28.563Z,426.43
2018-09-08T10:31:57.087Z,360.47
2018-09-08T10:34:25.566Z,371.47
2018-09-08T10:36:54.115Z,356.33
2018-09-08T10:39:22.643Z,348.47
2018-09-08T10:41:51.238Z,388.93
2018-09-08T10:44:20.505Z,454.63
2018-09-08T10:46:49.032Z,490.93
2018-09-08T10:49:17.471Z,553.30
2018-09-08T10:51:51.032Z,575.07
2018-09-08T10:54:19.512Z,557.53
2018-09-08T10:56:48.062Z,559.83
2018-09-08T10:59:16.519Z,558.80
2018-09-08T11:01:45.082Z,573.00
2018-09-08T11:04:13.564Z,572.47
2018-09-08T11:06:42.105Z,557.50
2018-09-08T11:09:10.554Z,551.70
2018-09-08T11:11:39.033Z,533.70
2018-09-08T11:14:07.668Z,492.47
2018-09-08T11:19:29.394Z,431.73
2018-09-08T11:21:58.017Z,433.30
2018-09-08T11:24:26.870Z,439.87
2018-09-08T11:26:55.437Z,411.50
2018-09-08T11:29:23.975Z,362.90
2018-09-08T11:31:52.475Z,376.33
2018-09-08T11:34:21.023Z,399.43
2018-09-08T11:36:49.533Z,391.10
2018-09-08T11:39:18.145Z,381.10
2018-09-08T11:41:47.014Z,388.73
2018-09-08T11:44:16.442Z,376.67
2018-09-08T11:46:44.944Z,376.27
2018-09-08T11:49:13.501Z,359.33
2018-09-08T11:51:42.236Z,338.80
2018-09-08T11:54:10.745Z,371.73
2018-09-08T11:56:39.434Z,352.80
2018-09-08T11:59:08.818Z,362.57
2018-09-08T12:01:37.489Z,358.13
2018-09-08T12:04:06.400Z,378.73
2018-09-08T12:06:34.952Z,416.47
2018-09-08T12:09:04.662Z,402.57
2018-09-08T12:11:33.226Z,392.17
2018-09-08T12:14:01.861Z,382.93
2018-09-08T12:16:30.371Z,380.17
2018-09-08T12:18:58.982Z,385.07
2018-09-08T12:21:27.473Z,417.37
2018-09-08T12:23:56.346Z,431.13
2018-09-08T12:26:25.250Z,418.60
2018-09-08T12:28:54.395Z,458.30
2018-09-08T12:31:22.919Z,457.77
2018-09-08T12:33:53.331Z,472.80
2018-09-08T12:36:22.014Z,481.20
2018-09-08T12:38:50.705Z,485.83
2018-09-08T12:41:19.243Z,463.70
2018-09-08T12:43:47.826Z,470.77
2018-09-08T12:46:16.454Z,516.87
2018-09-08T12:48:45.031Z,490.17
2018-09-08T12:51:13.659Z,504.30
2018-09-08T12:53:42.198Z,493.63
2018-09-08T12:56:10.758Z,509.40
2018-09-08T12:58:39.365Z,506.93
2018-09-08T13:06:15.647Z,540.00
2018-09-08T13:08:44.180Z,519.27
2018-09-08T13:11:14.124Z,476.30
2018-09-08T13:13:44.201Z,468.00
2018-09-08T13:16:12.771Z,493.00
2018-09-08T13:18:41.320Z,493.90
2018-09-08T13:21:09.833Z,500.27
2018-09-08T13:23:38.452Z,449.67
2018-09-08T13:26:07.007Z,439.27
2018-09-08T13:28:35.539Z,398.97
2018-09-08T13:31:04.088Z,410.47
2018-09-08T13:33:32.620Z,409.67
2018-09-08T13:36:01.127Z,424.20
2018-09-08T13:38:29.822Z,399.93
2018-09-08T13:40:58.324Z,410.40
2018-09-08T13:43:26.856Z,442.03
2018-09-08T13:45:55.552Z,413.63
2018-09-08T13:48:24.084Z,398.47
2018-09-08T13:50:52.636Z,388.53
2018-09-08T13:53:21.931Z,418.97
2018-09-08T13:55:50.487Z,432.03
2018-09-08T13:58:20.524Z,412.57
2018-09-08T14:00:50.400Z,421.37
2018-09-08T14:03:21.620Z,448.10
2018-09-08T14:05:51.682Z,446.73
2018-09-08T14:08:21.964Z,469.10
2018-09-08T14:10:52.898Z,458.83
2018-09-08T14:13:25.281Z,479.40
2018-09-08T14:15:55.801Z,519.03
2018-09-08T14:18:26.416Z,465.13
2018-09-08T14:20:56.836Z,558.77
2018-09-08T14:23:25.525Z,546.73
2018-09-08T14:25:54.048Z,578.07
2018-09-08T14:28:22.631Z,521.77
2018-09-08T14:30:51.145Z,559.00
2018-09-08T14:33:19.974Z,487.43
2018-09-08T14:35:48.625Z,501.70
2018-09-08T14:38:20.363Z,505.37
2018-09-08T14:40:49.086Z,526.90
2018-09-08T14:43:17.843Z,554.20
2018-09-08T14:45:46.474Z,531.30
2018-09-08T14:48:15.123Z,609.27
2018-09-08T14:50:43.800Z,636.63
2018-09-08T14:53:13.315Z,629.87
2018-09-08T14:55:43.022Z,599.47
2018-09-08T14:58:11.589Z,532.00
2018-09-08T15:00:40.132Z,462.90
2018-09-08T15:03:08.649Z,502.70
2018-09-08T15:05:37.817Z,511.17
2018-09-08T15:08:06.784Z,479.17
2018-09-08T15:10:35.567Z,474.47
2018-09-08T15:13:04.328Z,480.47
2018-09-08T15:15:33.121Z,498.37
2018-09-08T15:18:01.934Z,510.03
2018-09-08T15:20:30.815Z,504.07
2018-09-08T15:22:59.592Z,515.87
2018-09-08T15:25:28.535Z,511.60
2018-09-08T15:27:57.297Z,508.90
2018-09-08T15:30:26.063Z,529.27
2018-09-08T15:32:54.964Z,491.00
2018-09-08T15:35:23.615Z,414.43
2018-09-08T15:37:53.172Z,396.57
2018-09-08T15:43:02.358Z,325.20
2018-09-08T15:45:34.975Z,294.73
2018-09-08T15:48:08.884Z,292.80
2018-09-08T15:50:41.017Z,299.03
2018-09-08T15:53:11.743Z,296.20
2018-09-08T15:55:40.666Z,274.10
2018-09-08T15:58:09.301Z,282.73
2018-09-08T16:00:38.030Z,258.70
2018-09-08T16:03:08.303Z,275.40
2018-09-08T16:05:37.052Z,247.43
2018-09-08T16:08:06.235Z,276.93
2018-09-08T16:10:36.836Z,259.23
2018-09-08T16:13:06.074Z,271.17
2018-09-08T16:15:34.853Z,324.10
2018-09-08T16:18:03.640Z,297.90
2018-09-08T16:20:32.257Z,271.87
2018-09-08T16:23:00.828Z,283.60
2018-09-08T16:25:29.500Z,276.93
2018-09-08T16:27:58.186Z,296.17
2018-09-08T16:30:26.769Z,336.43
2018-09-08T16:32:55.291Z,343.70
2018-09-08T16:35:23.847Z,319.93
2018-09-08T16:37:52.401Z,344.57
2018-09-08T16:40:20.921Z,347.50
2018-09-08T16:42:49.500Z,370.97
2018-09-08T16:45:18.018Z,429.40
2018-09-08T16:47:46.551Z,434.17
2018-09-08T16:50:15.149Z,449.30
2018-09-08T16:52:43.707Z,464.87
2018-09-08T16:55:12.196Z,476.30
2018-09-08T16:57:40.764Z,486.20
2018-09-08T17:00:09.394Z,476.80
2018-09-08T17:02:37.880Z,487.23
2018-09-08T17:05:06.605Z,490.83
2018-09-08T17:07:35.093Z,461.57
2018-09-08T17:10:03.699Z,478.03
2018-09-08T17:12:32.208Z,469.87
2018-09-08T17:15:00.784Z,452.70
2018-09-08T17:17:29.315Z,448.93
2018-09-08T17:19:57.863Z,448.60
2018-09-08T17:22:26.400Z,490.87
2018-09-08T17:24:54.926Z,505.53
2018-09-08T17:27:23.625Z,525.50
2018-09-08T17:29:52.285Z,534.70
2018-09-08T17:32:20.857Z,503.73
2018-09-08T17:34:49.401Z,475.20
2018-09-08T17:37:17.952Z,480.53
2018-09-08T17:39:46.517Z,421.00
2018-09-08T17:42:16.586Z,436.40
2018-09-08T17:44:45.180Z,422.30
2018-09-08T17:47:13.818Z,410.53
2018-09-08T17:49:42.363Z,414.17
2018-09-08T17:52:10.977Z,409.93
2018-09-08T17:54:39.479Z,421.70
2018-09-08T17:57:08.031Z,439.43
2018-09-08T17:59:36.644Z,458.83
2018-09-08T18:02:07.384Z,473.83
2018-09-08T18:04:35.972Z,474.23
2018-09-08T18:07:04.921Z,483.60
2018-09-08T18:09:33.577Z,501.23
2018-09-08T18:12:02.119Z,494.47
2018-09-08T18:14:30.692Z,500.43
2018-09-08T18:16:59.192Z,504.37
2018-09-08T18:19:27.752Z,482.00
2018-09-08T18:21:56.284Z,474.57
2018-09-08T18:24:34.350Z,442.43
2018-09-08T18:27:05.802Z,421.37
2018-09-08T18:29:44.018Z,393.37
2018-09-08T18:35:25.964Z,370.27
2018-09-08T18:37:55.533Z,367.57
2018-09-08T18:40:24.156Z,335.93
2018-09-08T18:42:52.761Z,327.47
2018-09-08T18:45:30.643Z,307.00
2018-09-08T18:48:00.687Z,290.53
2018-09-08T18:50:35.599Z,304.90
2018-09-08T19:01:41.009Z,249.63
2018-09-08T19:04:50.393Z,243.00
2018-09-08T19:07:37.601Z,219.03
2018-09-08T19:10:30.331Z,210.73
2018-09-08T19:13:12.856Z,209.83
2018-09-08T19:16:10.382Z,254.43
2018-09-08T19:19:10.191Z,269.73
2018-09-08T19:24:56.141Z,327.30
2018-09-08T19:27:44.805Z,391.77
2018-09-08T19:33:19.038Z,486.83
2018-09-08T19:36:06.469Z,540.00
2018-09-08T19:38:48.367Z,571.83
2018-09-08T19:41:17.086Z,599.27
2018-09-08T19:43:46.705Z,618.67
2018-09-08T19:46:21.273Z,612.00
2018-09-08T19:48:50.622Z,601.43
2018-09-08T19:51:25.284Z,619.47
2018-09-08T19:54:08.483Z,630.57
2018-09-08T19:56:53.508Z,615.93
2018-09-08T19:59:37.247Z,598.93
2018-09-08T20:02:15.972Z,590.90
2018-09-08T20:04:59.996Z,544.63
2018-09-08T20:10:42.153Z,361.33
2018-09-08T20:13:17.041Z,271.77
2018-09-08T20:15:56.436Z,239.93
2018-09-08T20:18:38.242Z,262.13
2018-09-08T20:21:19.701Z,305.93
2018-09-08T20:23:55.565Z,258.67
2018-09-08T20:26:31.195Z,241.37
2018-09-08T20:29:06.081Z,230.10
2018-09-08T20:31:47.821Z,267.37
2018-09-08T20:34:22.072Z,313.10
2018-09-08T20:37:01.899Z,348.47
2018-09-08T20:39:33.583Z,394.23
2018-09-08T20:42:07.057Z,400.20
2018-09-08T20:44:45.857Z,445.33
2018-09-08T20:47:20.366Z,462.80
2018-09-08T20:49:53.164Z,481.93
2018-09-08T20:52:29.269Z,476.10
2018-09-08T20:55:03.457Z,496.10
2018-09-08T20:57:38.176Z,485.40
2018-09-08T21:00:18.948Z,500.70
2018-09-08T21:02:57.182Z,519.40
2018-09-08T21:05:31.175Z,536.27
2018-09-08T21:08:02.437Z,537.27
2018-09-08T21:10:36.726Z,565.33
2018-09-08T21:13:08.670Z,556.60
2018-09-08T21:15:38.515Z,566.80
2018-09-08T21:18:11.390Z,556.80
2018-09-08T21:20:44.930Z,551.57
2018-09-08T21:23:13.590Z,535.00
2018-09-08T21:25:42.124Z,507.33
2018-09-08T21:28:10.685Z,493.30
2018-09-08T21:30:39.231Z,491.17
2018-09-08T21:33:07.764Z,491.80
2018-09-08T21:35:36.311Z,508.23
2018-09-08T21:38:04.972Z,491.80
2018-09-08T21:40:33.496Z,511.47
2018-09-08T21:43:02.035Z,493.60
2018-09-08T21:45:30.584Z,477.57
2018-09-08T21:47:59.165Z,497.83
2018-09-08T21:50:27.659Z,451.03
2018-09-08T21:52:56.236Z,366.40
2018-09-08T21:55:24.776Z,381.53
2018-09-08T21:57:53.276Z,329.63
2018-09-08T22:00:21.821Z,270.83
2018-09-08T22:02:50.364Z,252.00
2018-09-08T22:05:18.904Z,267.87
2018-09-08T22:07:47.406Z,228.33
2018-09-08T22:10:15.967Z,259.13
2018-09-08T22:12:44.520Z,217.83
2018-09-08T22:15:13.057Z,267.90
2018-09-08T22:17:41.570Z,252.80
2018-09-08T22:20:10.179Z,330.27
2018-09-08T22:22:38.739Z,483.23
2018-09-08T22:25:07.375Z,554.40
2018-09-08T22:27:35.892Z,604.93
2018-09-08T22:30:04.496Z,606.07
2018-09-08T22:32:32.991Z,575.10
2018-09-08T22:35:01.555Z,538.10
2018-09-08T22:37:30.091Z,492.70
2018-09-08T22:39:58.640Z,473.77
2018-09-08T22:42:27.135Z,437.50
2018-09-08T22:44:55.677Z,407.33
2018-09-08T22:47:24.227Z,435.23
2018-09-08T22:49:52.760Z,481.00
2018-09-08T22:52:21.302Z,532.13
2018-09-08T22:54:49.861Z,561.23
2018-09-08T22:57:18.368Z,610.17
2018-09-08T22:59:46.970Z,595.47
2018-09-08T23:02:15.452Z,618.73
2018-09-08T23:04:44.007Z,624.10
2018-09-08T23:07:12.552Z,597.47
2018-09-08T23:09:41.219Z,565.97
2018-09-08T23:12:09.788Z,558.03
2018-09-08T23:14:38.316Z,499.87
2018-09-08T23:17:07.008Z,435.67
2018-09-08T23:19:35.556Z,454.53
2018-09-08T23:22:04.083Z,400.47
2018-09-08T23:24:32.637Z,385.17
2018-09-08T23:27:01.169Z,360.00
2018-09-08T23:29:29.712Z,302.33
2018-09-08T23:31:58.263Z,264.60
2018-09-08T23:34:26.788Z,215.60
2018-09-08T23:36:55.344Z,209.93
2018-09-08T23:39:23.859Z,199.97
2018-09-08T23:41:52.420Z,169.27
2018-09-08T23:44:20.931Z,185.93
2018-09-08T23:46:49.509Z,174.50
2018-09-08T23:49:18.092Z,170.10
2018-09-08T23:51:46.634Z,191.20
2018-09-08T23:54:15.184Z,209.53
2018-09-08T23:56:43.675Z,205.50
2018-09-08T23:59:12.221Z,220.70
